sensor_id;sensor_type;location;lat;lon;timestamp;P1;P2;P0
84646;PMS5003;74876;52.404;16.896;2024-01-15T00:05:09;14.232047343327658;14.232047343327658;5.534685077960756
84646;PMS5003;74876;52.404;16.896;2024-01-15T00:20:10;17.908823023519982;14.015600627102597;5.450511354984343
84646;PMS5003;74876;52.404;16.896;2024-01-15T00:40:09;18.844058006684435;18.844058006684435;6.783860882406396
84646;PMS5003;74876;52.404;16.896;2024-01-15T00:55:09;24.28932653518122;19.735077809834742;6.072331633795305
84646;PMS5003;74876;52.404;16.896;2024-01-15T01:10:09;20.23223120256205;20.23223120256205;5.994735171129497
84646;PMS5003;74876;52.404;16.896;2024-01-15T01:25:09;16.57148447421642;16.57148447421642;6.025994354260516
84646;PMS5003;74876;52.404;16.896;2024-01-15T01:40:09;22.166808814094065;22.166808814094065;6.879354459546434
84646;PMS5003;74876;52.404;16.896;2024-01-15T01:55:09;17.868861277640686;17.868861277640686;5.43834908449934
84646;PMS5003;74876;52.404;16.896;2024-01-15T02:10:09;17.32384396023337;17.32384396023337;3.1497898109515217
84646;PMS5003;74876;52.404;16.896;2024-01-15T02:25:09;19.533670850190152;19.533670850190152;8.95293247300382
84646;PMS5003;74876;52.404;16.896;2024-01-15T02:40:09;26.352782717691593;21.411635958124418;4.941146759567173
84646;PMS5003;74876;52.404;16.896;2024-01-15T02:55:10;24.881017442464405;24.881017442464405;9.952406976985761
84646;PMS5003;74876;52.404;16.896;2024-01-15T03:10:10;17.51928783126935;17.51928783126935;8.342518014890166
84646;PMS5003;74876;52.404;16.896;2024-01-15T03:25:10;15.7611367017128;13.39696619645588;3.9402841754282
84646;PMS5003;74876;52.404;16.896;2024-01-15T03:40:10;22.830085294129166;19.025071078440973;7.610028431376389
84646;PMS5003;74876;52.404;16.896;2024-01-15T03:55:10;15.358213850190953;15.358213850190953;5.850748133406078
84646;PMS5003;74876;52.404;16.896;2024-01-15T04:10:09;18.372457684618613;16.167762762464378;5.879186459077956
84646;PMS5003;74876;52.404;16.896;2024-01-15T04:25:09;14.14563728237098;14.14563728237098;4.4670433523276785
84646;PMS5003;74876;52.404;16.896;2024-01-15T04:40:09;13.737206570054768;11.447672141712307;6.105425142246563
84646;PMS5003;74876;52.404;16.896;2024-01-15T04:55:09;16.25745597235001;16.25745597235001;4.064363993087502
84646;PMS5003;74876;52.404;16.896;2024-01-15T05:10:09;14.52100861747426;12.100840514561883;5.647058906795546
84646;PMS5003;74876;52.404;16.896;2024-01-15T05:25:09;8.883781018519102;8.883781018519102;1.6152329124580185
84646;PMS5003;74876;52.404;16.896;2024-01-15T05:40:09;11.113531184587883;11.113531184587883;2.381470968125975
84646;PMS5003;74876;52.404;16.896;2024-01-15T05:55:09;14.0162757094219;14.0162757094219;3.2979472257463294
84646;PMS5003;74876;52.404;16.896;2024-01-15T06:10:09;8.605380545137695;8.605380545137695;1.7210761090275388
84646;PMS5003;74876;52.404;16.896;2024-01-15T06:25:09;13.014925172059094;13.014925172059094;5.205970068823638
84646;PMS5003;74876;52.404;16.896;2024-01-15T06:40:09;10.489660234717794;10.489660234717794;6.9931068231451965
84646;PMS5003;74876;52.404;16.896;2024-01-15T06:55:09;22.88968452941178;17.60744963800906;6.162607373303172
84646;PMS5003;74876;52.404;16.896;2024-01-15T07:10:09;10.506527603227294;10.506527603227294;4.3777198346780395
84646;PMS5003;74876;52.404;16.896;2024-01-15T07:25:09;15.141922713780987;15.141922713780987;7.125610688838111
84646;PMS5003;74876;52.404;16.896;2024-01-15T07:40:09;8.977993579806625;8.977993579806625;4.488996789903313
84646;PMS5003;74876;52.404;16.896;2024-01-15T07:55:09;13.511084243910048;9.908128445534036;2.7022168487820095
84646;PMS5003;74876;52.404;16.896;2024-01-15T08:15:10;14.929491877688706;14.929491877688706;5.269232427419544
84646;PMS5003;74876;52.404;16.896;2024-01-15T08:30:09;10.576671535174592;10.576671535174592;3.5255571783915305
84646;PMS5003;74876;52.404;16.896;2024-01-15T08:50:09;7.635085318408591;7.635085318408591;0.8483428131565101
84646;PMS5003;74876;52.404;16.896;2024-01-15T09:05:09;12.869451706704513;12.869451706704513;2.5738903413409027
84646;PMS5003;74876;52.404;16.896;2024-01-15T09:20:09;7.630121017004289;7.630121017004289;3.3911648964463508
84646;PMS5003;74876;52.404;16.896;2024-01-15T09:35:09;9.775462359891595;9.775462359891595;5.26371050148009
84646;PMS5003;74876;52.404;16.896;2024-01-15T09:50:09;4.483280445336774;4.483280445336774;0.7472134075561291
84646;PMS5003;74876;52.404;16.896;2024-01-15T10:05:09;14.880773195388635;14.880773195388635;5.786967353762247
84646;PMS5003;74876;52.404;16.896;2024-01-15T10:20:09;6.77011650499819;6.77011650499819;3.385058252499095
84646;PMS5003;74876;52.404;16.896;2024-01-15T10:40:09;12.169418216058189;12.169418216058189;6.084709108029094
84646;PMS5003;74876;52.404;16.896;2024-01-15T10:55:09;13.379634497847197;10.703707598277758;1.7839512663796262
84646;PMS5003;74876;52.404;16.896;2024-01-15T11:10:09;9.989276677465012;9.989276677465012;4.540580307938642
84646;PMS5003;74876;52.404;16.896;2024-01-15T11:25:09;11.025119053412485;11.025119053412485;3.675039684470829
84646;PMS5003;74876;52.404;16.896;2024-01-15T11:40:09;12.181872767176703;12.181872767176703;4.685335679683347
84646;PMS5003;74876;52.404;16.896;2024-01-15T11:55:09;9.215454505562917;9.215454505562917;2.764636351668875
84646;PMS5003;74876;52.404;16.896;2024-01-15T12:15:09;10.599519647334796;8.832933039445663;3.5331732157782656
84646;PMS5003;74876;52.404;16.896;2024-01-15T12:30:09;11.217189915030547;11.217189915030547;3.7390633050101822
84646;PMS5003;74876;52.404;16.896;2024-01-15T12:45:09;10.870816333310756;10.870816333310756;3.953024121203911
84646;PMS5003;74876;52.404;16.896;2024-01-15T13:00:09;4.9085997503043854;4.9085997503043854;1.9634399001217542
84646;PMS5003;74876;52.404;16.896;2024-01-15T13:15:10;5.878748168483416;5.878748168483416;0.9797913614139028
84646;PMS5003;74876;52.404;16.896;2024-01-15T13:30:10;16.037881657790354;9.434048033994326;0.9434048033994326
84646;PMS5003;74876;52.404;16.896;2024-01-15T13:45:10;5.6594825372316;5.6594825372316;1.8864941790772
84646;PMS5003;74876;52.404;16.896;2024-01-15T14:05:09;4.848160542545475;4.848160542545475;0.9696321085090951
84646;PMS5003;74876;52.404;16.896;2024-01-15T14:20:09;6.739731579955029;6.739731579955029;3.851275188545731
84646;PMS5003;74876;52.404;16.896;2024-01-15T14:35:09;10.692803675117663;6.80451142962033;0.9720730613743329
84646;PMS5003;74876;52.404;16.896;2024-01-15T14:50:09;3.5026422726386035;3.5026422726386035;0.0
84646;PMS5003;74876;52.404;16.896;2024-01-15T15:05:09;2.535435339191663;2.535435339191663;0.0
84646;PMS5003;74876;52.404;16.896;2024-01-15T15:20:09;5.066648901439446;5.066648901439446;0.8444414835732409
84646;PMS5003;74876;52.404;16.896;2024-01-15T15:35:09;7.74828700513143;7.74828700513143;2.58276233504381
84646;PMS5003;74876;52.404;16.896;2024-01-15T15:50:09;7.058303892951206;7.058303892951206;0.8822879866189007
84646;PMS5003;74876;52.404;16.896;2024-01-15T16:05:09;6.3615213761187075;6.3615213761187075;0.9087887680169582
84646;PMS5003;74876;52.404;16.896;2024-01-15T16:20:09;4.587436333978757;4.587436333978757;0.9174872667957514
84646;PMS5003;74876;52.404;16.896;2024-01-15T16:35:09;5.6076018243312085;5.6076018243312085;0.0
84646;PMS5003;74876;52.404;16.896;2024-01-15T16:50:09;8.367586615847095;8.367586615847095;1.8594636924104655
84646;PMS5003;74876;52.404;16.896;2024-01-15T17:05:10;9.399830312955586;5.639898187773352;0.9399830312955586
84646;PMS5003;74876;52.404;16.896;2024-01-15T17:20:09;3.7913700552630925;3.7913700552630925;0.9478425138157731
84646;PMS5003;74876;52.404;16.896;2024-01-15T17:35:10;5.789168407669937;5.789168407669937;0.9648614012783229
84646;PMS5003;74876;52.404;16.896;2024-01-15T17:50:10;4.894422447996172;4.894422447996172;0.9788844895992346
84646;PMS5003;74876;52.404;16.896;2024-01-15T18:05:10;3.988260495084004;3.988260495084004;0.0
84646;PMS5003;74876;52.404;16.896;2024-01-15T18:20:10;3.999728627740409;3.999728627740409;0.0
84646;PMS5003;74876;52.404;16.896;2024-01-15T18:35:09;4.014679933465296;4.014679933465296;1.003669983366324
84646;PMS5003;74876;52.404;16.896;2024-01-15T18:50:09;3.0077548152851743;3.0077548152851743;0.0
84646;PMS5003;74876;52.404;16.896;2024-01-15T19:05:09;6.066916358137342;6.066916358137342;1.0111527263562237
84646;PMS5003;74876;52.404;16.896;2024-01-15T19:20:09;4.072366290891298;4.072366290891298;1.0180915727228246
84646;PMS5003;74876;52.404;16.896;2024-01-15T19:35:09;5.053844844004823;5.053844844004823;1.0107689688009647
84646;PMS5003;74876;52.404;16.896;2024-01-15T19:50:09;4.049415475446715;4.049415475446715;1.0123538688616787
84646;PMS5003;74876;52.404;16.896;2024-01-15T20:05:09;6.11802135154974;6.11802135154974;0.0
84646;PMS5003;74876;52.404;16.896;2024-01-15T20:20:09;5.108776674103472;5.108776674103472;1.0217553348206945
84646;PMS5003;74876;52.404;16.896;2024-01-15T20:40:09;5.088342100201368;5.088342100201368;0.0
84646;PMS5003;74876;52.404;16.896;2024-01-15T20:55:09;5.098613132762482;5.098613132762482;1.0197226265524966
84646;PMS5003;74876;52.404;16.896;2024-01-15T21:20:09;4.047016933634429;4.047016933634429;0.0
84646;PMS5003;74876;52.404;16.896;2024-01-15T21:35:09;6.065601179888362;6.065601179888362;0.0
84646;PMS5003;74876;52.404;16.896;2024-01-15T21:50:09;4.0277786571494305;4.0277786571494305;1.0069446642873576
84646;PMS5003;74876;52.404;16.896;2024-01-15T22:05:09;4.013996278163521;4.013996278163521;1.0034990695408803
84646;PMS5003;74876;52.404;16.896;2024-01-15T22:20:09;6.000289596649882;6.000289596649882;1.0000482661083137
84646;PMS5003;74876;52.404;16.896;2024-01-15T22:40:09;3.028176377180897;3.028176377180897;0.0
84646;PMS5003;74876;52.404;16.896;2024-01-15T22:55:09;3.0359174956250112;3.0359174956250112;0.0
84646;PMS5003;74876;52.404;16.896;2024-01-15T23:10:09;4.074266073676574;4.074266073676574;0.0
84646;PMS5003;74876;52.404;16.896;2024-01-15T23:25:09;3.0311533343647956;3.0311533343647956;1.0103844447882653
84646;PMS5003;74876;52.404;16.896;2024-01-15T23:45:09;3.021840756104355;3.021840756104355;0.0
